sensor_id;sensor_type;location;lat;lon;timestamp;P1;durP1;ratioP1;P2;durP2;ratioP2
52268;SDS011;38224;50.950;4.100;2023-02-18T00:00:03;20.25;;;13.07;;
52268;SDS011;38224;50.950;4.100;2023-02-18T00:02:29;22.55;;;13.48;;
52268;SDS011;38224;50.950;4.100;2023-02-18T00:04:56;15.50;;;12.52;;
52268;SDS011;38224;50.950;4.100;2023-02-18T00:07:21;17.00;;;12.82;;
52268;SDS011;38224;50.950;4.100;2023-02-18T00:09:46;17.03;;;13.27;;
52268;SDS011;38224;50.950;4.100;2023-02-18T00:12:11;19.75;;;13.10;;
52268;SDS011;38224;50.950;4.100;2023-02-18T00:14:37;16.77;;;11.75;;
52268;SDS011;38224;50.950;4.100;2023-02-18T00:17:02;17.23;;;12.35;;
52268;SDS011;38224;50.950;4.100;2023-02-18T00:19:27;16.80;;;11.30;;
52268;SDS011;38224;50.950;4.100;2023-02-18T00:21:53;16.83;;;11.90;;
52268;SDS011;38224;50.950;4.100;2023-02-18T00:24:18;19.97;;;12.33;;
52268;SDS011;38224;50.950;4.100;2023-02-18T00:26:44;18.65;;;11.98;;
52268;SDS011;38224;50.950;4.100;2023-02-18T00:29:09;18.83;;;11.93;;
52268;SDS011;38224;50.950;4.100;2023-02-18T00:31:35;19.85;;;12.15;;
52268;SDS011;38224;50.950;4.100;2023-02-18T00:34:01;24.08;;;12.13;;
52268;SDS011;38224;50.950;4.100;2023-02-18T00:36:27;19.40;;;12.55;;
52268;SDS011;38224;50.950;4.100;2023-02-18T00:38:53;18.73;;;12.27;;
52268;SDS011;38224;50.950;4.100;2023-02-18T00:41:20;23.15;;;12.05;;
52268;SDS011;38224;50.950;4.100;2023-02-18T00:43:45;18.45;;;11.90;;
52268;SDS011;38224;50.950;4.100;2023-02-18T00:46:10;16.47;;;11.90;;
52268;SDS011;38224;50.950;4.100;2023-02-18T00:48:36;21.00;;;11.30;;
52268;SDS011;38224;50.950;4.100;2023-02-18T00:51:02;16.48;;;10.73;;
52268;SDS011;38224;50.950;4.100;2023-02-18T00:53:28;20.30;;;11.40;;
52268;SDS011;38224;50.950;4.100;2023-02-18T00:55:53;16.35;;;10.77;;
52268;SDS011;38224;50.950;4.100;2023-02-18T00:58:19;17.17;;;10.65;;
52268;SDS011;38224;50.950;4.100;2023-02-18T01:00:44;13.93;;;10.17;;
52268;SDS011;38224;50.950;4.100;2023-02-18T01:03:09;17.77;;;10.75;;
52268;SDS011;38224;50.950;4.100;2023-02-18T01:05:35;16.80;;;9.27;;
52268;SDS011;38224;50.950;4.100;2023-02-18T01:08:01;15.73;;;10.07;;
52268;SDS011;38224;50.950;4.100;2023-02-18T01:10:26;12.43;;;9.05;;
52268;SDS011;38224;50.950;4.100;2023-02-18T01:12:51;16.08;;;8.95;;
52268;SDS011;38224;50.950;4.100;2023-02-18T01:15:17;15.23;;;9.13;;
52268;SDS011;38224;50.950;4.100;2023-02-18T01:17:42;14.82;;;10.15;;
52268;SDS011;38224;50.950;4.100;2023-02-18T01:20:08;13.13;;;9.70;;
52268;SDS011;38224;50.950;4.100;2023-02-18T01:22:34;13.00;;;9.82;;
52268;SDS011;38224;50.950;4.100;2023-02-18T01:24:59;13.02;;;9.13;;
52268;SDS011;38224;50.950;4.100;2023-02-18T01:27:24;15.15;;;8.65;;
52268;SDS011;38224;50.950;4.100;2023-02-18T01:29:50;9.83;;;8.27;;
52268;SDS011;38224;50.950;4.100;2023-02-18T01:32:15;11.23;;;8.63;;
52268;SDS011;38224;50.950;4.100;2023-02-18T01:34:40;13.32;;;8.52;;
52268;SDS011;38224;50.950;4.100;2023-02-18T01:37:06;9.95;;;7.78;;
52268;SDS011;38224;50.950;4.100;2023-02-18T01:39:31;7.70;;;6.90;;
52268;SDS011;38224;50.950;4.100;2023-02-18T01:41:56;12.15;;;7.80;;
52268;SDS011;38224;50.950;4.100;2023-02-18T01:44:23;10.68;;;7.07;;
52268;SDS011;38224;50.950;4.100;2023-02-18T01:46:49;10.30;;;6.38;;
52268;SDS011;38224;50.950;4.100;2023-02-18T01:49:18;15.25;;;6.70;;
52268;SDS011;38224;50.950;4.100;2023-02-18T01:51:53;8.70;;;6.38;;
52268;SDS011;38224;50.950;4.100;2023-02-18T01:54:30;6.40;;;5.22;;
52268;SDS011;38224;50.950;4.100;2023-02-18T01:56:57;7.05;;;5.95;;
52268;SDS011;38224;50.950;4.100;2023-02-18T01:59:23;6.93;;;5.57;;
52268;SDS011;38224;50.950;4.100;2023-02-18T02:01:50;8.32;;;6.38;;
52268;SDS011;38224;50.950;4.100;2023-02-18T02:04:15;9.55;;;6.88;;
52268;SDS011;38224;50.950;4.100;2023-02-18T02:06:41;9.52;;;6.82;;
52268;SDS011;38224;50.950;4.100;2023-02-18T02:09:07;9.35;;;7.03;;
52268;SDS011;38224;50.950;4.100;2023-02-18T02:11:48;9.70;;;7.35;;
52268;SDS011;38224;50.950;4.100;2023-02-18T02:22:29;8.82;;;7.70;;
52268;SDS011;38224;50.950;4.100;2023-02-18T02:27:24;8.48;;;6.90;;
52268;SDS011;38224;50.950;4.100;2023-02-18T02:35:29;8.50;;;7.30;;
52268;SDS011;38224;50.950;4.100;2023-02-18T02:43:24;7.22;;;6.43;;
52268;SDS011;38224;50.950;4.100;2023-02-18T02:53:30;7.40;;;5.47;;
52268;SDS011;38224;50.950;4.100;2023-02-18T02:55:57;6.65;;;5.95;;
52268;SDS011;38224;50.950;4.100;2023-02-18T02:58:22;6.67;;;5.53;;
52268;SDS011;38224;50.950;4.100;2023-02-18T03:03:42;6.18;;;4.40;;
52268;SDS011;38224;50.950;4.100;2023-02-18T03:08:46;6.78;;;5.63;;
52268;SDS011;38224;50.950;4.100;2023-02-18T03:11:14;6.60;;;4.68;;
52268;SDS011;38224;50.950;4.100;2023-02-18T03:13:46;6.63;;;4.57;;
52268;SDS011;38224;50.950;4.100;2023-02-18T03:19:03;7.45;;;4.88;;
52268;SDS011;38224;50.950;4.100;2023-02-18T03:21:43;5.38;;;4.55;;
52268;SDS011;38224;50.950;4.100;2023-02-18T03:24:13;5.28;;;4.50;;
52268;SDS011;38224;50.950;4.100;2023-02-18T03:26:41;5.22;;;4.72;;
52268;SDS011;38224;50.950;4.100;2023-02-18T03:29:08;7.10;;;5.15;;
52268;SDS011;38224;50.950;4.100;2023-02-18T03:31:35;5.43;;;4.50;;
52268;SDS011;38224;50.950;4.100;2023-02-18T03:34:09;5.97;;;4.38;;
52268;SDS011;38224;50.950;4.100;2023-02-18T03:39:04;5.00;;;3.83;;
52268;SDS011;38224;50.950;4.100;2023-02-18T03:41:30;6.57;;;4.05;;
52268;SDS011;38224;50.950;4.100;2023-02-18T03:44:00;3.45;;;3.15;;
52268;SDS011;38224;50.950;4.100;2023-02-18T03:46:26;5.90;;;3.53;;
52268;SDS011;38224;50.950;4.100;2023-02-18T03:48:52;4.18;;;3.78;;
52268;SDS011;38224;50.950;4.100;2023-02-18T03:51:17;6.10;;;3.90;;
52268;SDS011;38224;50.950;4.100;2023-02-18T03:53:43;5.40;;;3.58;;
52268;SDS011;38224;50.950;4.100;2023-02-18T03:56:08;3.93;;;3.53;;
52268;SDS011;38224;50.950;4.100;2023-02-18T03:58:34;3.70;;;3.00;;
52268;SDS011;38224;50.950;4.100;2023-02-18T04:00:59;4.07;;;3.33;;
52268;SDS011;38224;50.950;4.100;2023-02-18T04:03:24;5.10;;;2.78;;
52268;SDS011;38224;50.950;4.100;2023-02-18T04:05:50;4.40;;;3.10;;
52268;SDS011;38224;50.950;4.100;2023-02-18T04:08:15;3.28;;;2.97;;
52268;SDS011;38224;50.950;4.100;2023-02-18T04:10:40;4.40;;;2.85;;
52268;SDS011;38224;50.950;4.100;2023-02-18T04:13:06;4.03;;;3.28;;
52268;SDS011;38224;50.950;4.100;2023-02-18T04:15:31;3.23;;;2.93;;
52268;SDS011;38224;50.950;4.100;2023-02-18T04:17:56;4.50;;;3.50;;
52268;SDS011;38224;50.950;4.100;2023-02-18T04:20:21;5.13;;;3.25;;
52268;SDS011;38224;50.950;4.100;2023-02-18T04:22:47;4.30;;;3.60;;
52268;SDS011;38224;50.950;4.100;2023-02-18T04:25:12;4.85;;;3.67;;
52268;SDS011;38224;50.950;4.100;2023-02-18T04:27:38;3.10;;;2.80;;
52268;SDS011;38224;50.950;4.100;2023-02-18T04:30:03;3.22;;;2.90;;
52268;SDS011;38224;50.950;4.100;2023-02-18T04:32:29;3.97;;;3.40;;
52268;SDS011;38224;50.950;4.100;2023-02-18T04:34:54;3.30;;;3.00;;
52268;SDS011;38224;50.950;4.100;2023-02-18T04:37:19;3.40;;;3.10;;
52268;SDS011;38224;50.950;4.100;2023-02-18T04:39:44;4.50;;;3.20;;
52268;SDS011;38224;50.950;4.100;2023-02-18T04:42:10;3.33;;;3.00;;
52268;SDS011;38224;50.950;4.100;2023-02-18T04:44:35;3.30;;;3.00;;
52268;SDS011;38224;50.950;4.100;2023-02-18T04:47:01;3.63;;;3.00;;
52268;SDS011;38224;50.950;4.100;2023-02-18T04:49:26;5.00;;;2.83;;
52268;SDS011;38224;50.950;4.100;2023-02-18T04:51:51;4.97;;;3.05;;
52268;SDS011;38224;50.950;4.100;2023-02-18T04:54:17;2.90;;;2.45;;
52268;SDS011;38224;50.950;4.100;2023-02-18T04:56:42;2.90;;;2.47;;
52268;SDS011;38224;50.950;4.100;2023-02-18T04:59:07;3.63;;;2.83;;
52268;SDS011;38224;50.950;4.100;2023-02-18T05:01:33;5.93;;;3.88;;
52268;SDS011;38224;50.950;4.100;2023-02-18T05:03:58;4.30;;;3.30;;
52268;SDS011;38224;50.950;4.100;2023-02-18T05:06:23;4.47;;;3.28;;
52268;SDS011;38224;50.950;4.100;2023-02-18T05:08:48;3.92;;;3.25;;
52268;SDS011;38224;50.950;4.100;2023-02-18T05:11:14;5.35;;;3.47;;
52268;SDS011;38224;50.950;4.100;2023-02-18T05:13:39;4.73;;;3.73;;
52268;SDS011;38224;50.950;4.100;2023-02-18T05:16:04;10.38;;;3.85;;
52268;SDS011;38224;50.950;4.100;2023-02-18T05:18:29;7.30;;;3.75;;
52268;SDS011;38224;50.950;4.100;2023-02-18T05:20:55;12.88;;;4.03;;
52268;SDS011;38224;50.950;4.100;2023-02-18T05:23:20;6.13;;;3.93;;
52268;SDS011;38224;50.950;4.100;2023-02-18T05:25:46;6.13;;;4.03;;
52268;SDS011;38224;50.950;4.100;2023-02-18T05:28:11;8.48;;;3.88;;
52268;SDS011;38224;50.950;4.100;2023-02-18T05:30:36;9.68;;;3.95;;
52268;SDS011;38224;50.950;4.100;2023-02-18T05:33:02;10.32;;;3.70;;
52268;SDS011;38224;50.950;4.100;2023-02-18T05:35:27;10.15;;;3.25;;
52268;SDS011;38224;50.950;4.100;2023-02-18T05:37:53;14.47;;;3.50;;
52268;SDS011;38224;50.950;4.100;2023-02-18T05:40:18;10.07;;;3.03;;
52268;SDS011;38224;50.950;4.100;2023-02-18T05:42:43;13.13;;;3.75;;
52268;SDS011;38224;50.950;4.100;2023-02-18T05:45:09;9.07;;;2.80;;
52268;SDS011;38224;50.950;4.100;2023-02-18T05:47:34;17.08;;;3.47;;
52268;SDS011;38224;50.950;4.100;2023-02-18T05:49:59;21.65;;;3.47;;
52268;SDS011;38224;50.950;4.100;2023-02-18T05:52:24;19.23;;;3.42;;
52268;SDS011;38224;50.950;4.100;2023-02-18T05:54:50;27.15;;;4.20;;
52268;SDS011;38224;50.950;4.100;2023-02-18T05:57:15;13.70;;;3.17;;
52268;SDS011;38224;50.950;4.100;2023-02-18T05:59:40;14.30;;;3.60;;
52268;SDS011;38224;50.950;4.100;2023-02-18T06:02:06;17.00;;;3.20;;
52268;SDS011;38224;50.950;4.100;2023-02-18T06:04:31;10.65;;;2.95;;
52268;SDS011;38224;50.950;4.100;2023-02-18T06:06:57;22.38;;;3.42;;
52268;SDS011;38224;50.950;4.100;2023-02-18T06:09:22;17.58;;;3.50;;
52268;SDS011;38224;50.950;4.100;2023-02-18T06:11:47;19.70;;;3.73;;
52268;SDS011;38224;50.950;4.100;2023-02-18T06:14:12;21.77;;;3.92;;
52268;SDS011;38224;50.950;4.100;2023-02-18T06:16:38;20.77;;;3.10;;
52268;SDS011;38224;50.950;4.100;2023-02-18T06:19:03;17.37;;;3.33;;
52268;SDS011;38224;50.950;4.100;2023-02-18T06:21:28;18.65;;;3.92;;
52268;SDS011;38224;50.950;4.100;2023-02-18T06:23:53;17.17;;;3.55;;
52268;SDS011;38224;50.950;4.100;2023-02-18T06:26:19;13.93;;;4.05;;
52268;SDS011;38224;50.950;4.100;2023-02-18T06:28:44;18.08;;;4.20;;
52268;SDS011;38224;50.950;4.100;2023-02-18T06:31:09;17.40;;;3.53;;
52268;SDS011;38224;50.950;4.100;2023-02-18T06:33:35;19.00;;;4.13;;
52268;SDS011;38224;50.950;4.100;2023-02-18T06:36:04;22.55;;;4.25;;
52268;SDS011;38224;50.950;4.100;2023-02-18T06:38:34;22.27;;;5.30;;
52268;SDS011;38224;50.950;4.100;2023-02-18T06:40:59;19.10;;;3.38;;
52268;SDS011;38224;50.950;4.100;2023-02-18T06:43:24;16.60;;;4.15;;
52268;SDS011;38224;50.950;4.100;2023-02-18T06:45:50;18.92;;;3.60;;
52268;SDS011;38224;50.950;4.100;2023-02-18T06:48:15;16.23;;;3.20;;
52268;SDS011;38224;50.950;4.100;2023-02-18T06:50:41;25.35;;;4.43;;
52268;SDS011;38224;50.950;4.100;2023-02-18T06:53:06;18.08;;;3.97;;
52268;SDS011;38224;50.950;4.100;2023-02-18T06:55:31;14.68;;;3.33;;
52268;SDS011;38224;50.950;4.100;2023-02-18T06:57:57;18.02;;;3.72;;
52268;SDS011;38224;50.950;4.100;2023-02-18T07:00:22;21.30;;;4.10;;
52268;SDS011;38224;50.950;4.100;2023-02-18T07:02:47;17.30;;;3.67;;
52268;SDS011;38224;50.950;4.100;2023-02-18T07:05:12;18.17;;;3.85;;
52268;SDS011;38224;50.950;4.100;2023-02-18T07:07:38;19.85;;;3.75;;
52268;SDS011;38224;50.950;4.100;2023-02-18T07:10:03;21.70;;;3.63;;
52268;SDS011;38224;50.950;4.100;2023-02-18T07:12:29;26.35;;;4.25;;
52268;SDS011;38224;50.950;4.100;2023-02-18T07:14:54;13.95;;;3.47;;
52268;SDS011;38224;50.950;4.100;2023-02-18T07:17:19;18.92;;;4.18;;
52268;SDS011;38224;50.950;4.100;2023-02-18T07:19:45;20.73;;;3.87;;
52268;SDS011;38224;50.950;4.100;2023-02-18T07:22:10;20.45;;;3.78;;
52268;SDS011;38224;50.950;4.100;2023-02-18T07:24:35;14.33;;;2.90;;
52268;SDS011;38224;50.950;4.100;2023-02-18T07:27:00;20.93;;;3.23;;
52268;SDS011;38224;50.950;4.100;2023-02-18T07:29:26;16.42;;;2.92;;
52268;SDS011;38224;50.950;4.100;2023-02-18T07:31:51;13.27;;;2.57;;
52268;SDS011;38224;50.950;4.100;2023-02-18T07:34:16;23.30;;;3.63;;
52268;SDS011;38224;50.950;4.100;2023-02-18T07:36:41;17.23;;;3.03;;
52268;SDS011;38224;50.950;4.100;2023-02-18T07:39:07;17.90;;;3.45;;
52268;SDS011;38224;50.950;4.100;2023-02-18T07:41:32;16.25;;;3.45;;
52268;SDS011;38224;50.950;4.100;2023-02-18T07:43:57;19.58;;;3.85;;
52268;SDS011;38224;50.950;4.100;2023-02-18T07:46:23;16.25;;;3.10;;
52268;SDS011;38224;50.950;4.100;2023-02-18T07:48:48;17.02;;;3.25;;
52268;SDS011;38224;50.950;4.100;2023-02-18T07:51:13;19.65;;;3.22;;
52268;SDS011;38224;50.950;4.100;2023-02-18T07:53:39;22.65;;;4.70;;
52268;SDS011;38224;50.950;4.100;2023-02-18T07:56:04;19.25;;;3.58;;
52268;SDS011;38224;50.950;4.100;2023-02-18T07:58:31;20.73;;;4.15;;
52268;SDS011;38224;50.950;4.100;2023-02-18T08:00:57;23.95;;;4.88;;
52268;SDS011;38224;50.950;4.100;2023-02-18T08:03:28;24.08;;;4.07;;
52268;SDS011;38224;50.950;4.100;2023-02-18T08:05:53;20.75;;;3.65;;
52268;SDS011;38224;50.950;4.100;2023-02-18T08:08:21;16.63;;;3.25;;
52268;SDS011;38224;50.950;4.100;2023-02-18T08:10:47;16.67;;;3.40;;
52268;SDS011;38224;50.950;4.100;2023-02-18T08:13:12;20.40;;;3.45;;
52268;SDS011;38224;50.950;4.100;2023-02-18T08:15:38;19.27;;;3.58;;
52268;SDS011;38224;50.950;4.100;2023-02-18T08:18:03;21.60;;;3.65;;
52268;SDS011;38224;50.950;4.100;2023-02-18T08:20:29;14.27;;;2.88;;
52268;SDS011;38224;50.950;4.100;2023-02-18T08:22:54;21.85;;;3.97;;
52268;SDS011;38224;50.950;4.100;2023-02-18T08:25:19;22.20;;;2.92;;
52268;SDS011;38224;50.950;4.100;2023-02-18T08:27:45;16.67;;;3.38;;
52268;SDS011;38224;50.950;4.100;2023-02-18T08:30:10;18.35;;;3.00;;
52268;SDS011;38224;50.950;4.100;2023-02-18T08:32:35;15.43;;;3.05;;
52268;SDS011;38224;50.950;4.100;2023-02-18T08:35:01;19.20;;;3.22;;
52268;SDS011;38224;50.950;4.100;2023-02-18T08:37:27;16.02;;;2.90;;
52268;SDS011;38224;50.950;4.100;2023-02-18T08:39:52;11.00;;;2.42;;
52268;SDS011;38224;50.950;4.100;2023-02-18T08:42:17;11.98;;;3.47;;
52268;SDS011;38224;50.950;4.100;2023-02-18T08:44:43;15.38;;;2.85;;
52268;SDS011;38224;50.950;4.100;2023-02-18T08:47:08;17.05;;;3.65;;
52268;SDS011;38224;50.950;4.100;2023-02-18T08:49:33;18.60;;;2.90;;
52268;SDS011;38224;50.950;4.100;2023-02-18T08:52:01;14.82;;;2.40;;
52268;SDS011;38224;50.950;4.100;2023-02-18T08:54:26;10.80;;;2.40;;
52268;SDS011;38224;50.950;4.100;2023-02-18T08:56:53;17.17;;;2.92;;
52268;SDS011;38224;50.950;4.100;2023-02-18T08:59:18;13.02;;;2.78;;
52268;SDS011;38224;50.950;4.100;2023-02-18T09:01:43;11.77;;;2.60;;
52268;SDS011;38224;50.950;4.100;2023-02-18T09:04:09;12.03;;;2.23;;
52268;SDS011;38224;50.950;4.100;2023-02-18T09:06:35;11.10;;;2.50;;
52268;SDS011;38224;50.950;4.100;2023-02-18T09:09:01;16.50;;;2.50;;
52268;SDS011;38224;50.950;4.100;2023-02-18T09:11:27;12.20;;;2.65;;
52268;SDS011;38224;50.950;4.100;2023-02-18T09:13:52;12.52;;;3.03;;
52268;SDS011;38224;50.950;4.100;2023-02-18T09:16:18;16.57;;;2.53;;
52268;SDS011;38224;50.950;4.100;2023-02-18T09:18:43;16.52;;;2.90;;
52268;SDS011;38224;50.950;4.100;2023-02-18T09:21:10;19.13;;;2.72;;
52268;SDS011;38224;50.950;4.100;2023-02-18T09:23:36;13.13;;;2.55;;
52268;SDS011;38224;50.950;4.100;2023-02-18T09:26:05;21.17;;;3.00;;
52268;SDS011;38224;50.950;4.100;2023-02-18T09:28:31;18.98;;;2.92;;
52268;SDS011;38224;50.950;4.100;2023-02-18T09:30:56;21.95;;;3.33;;
52268;SDS011;38224;50.950;4.100;2023-02-18T09:33:21;12.17;;;2.60;;
52268;SDS011;38224;50.950;4.100;2023-02-18T09:35:47;16.67;;;3.17;;
52268;SDS011;38224;50.950;4.100;2023-02-18T09:38:13;19.88;;;3.95;;
52268;SDS011;38224;50.950;4.100;2023-02-18T09:40:41;13.10;;;2.75;;
52268;SDS011;38224;50.950;4.100;2023-02-18T09:43:10;21.45;;;3.17;;
52268;SDS011;38224;50.950;4.100;2023-02-18T09:45:37;11.55;;;2.58;;
52268;SDS011;38224;50.950;4.100;2023-02-18T09:48:02;14.60;;;2.70;;
52268;SDS011;38224;50.950;4.100;2023-02-18T09:50:30;10.48;;;2.90;;
52268;SDS011;38224;50.950;4.100;2023-02-18T09:53:00;14.82;;;2.97;;
52268;SDS011;38224;50.950;4.100;2023-02-18T09:55:34;24.98;;;3.53;;
52268;SDS011;38224;50.950;4.100;2023-02-18T09:58:06;19.20;;;2.95;;
52268;SDS011;38224;50.950;4.100;2023-02-18T10:00:36;20.30;;;3.28;;
52268;SDS011;38224;50.950;4.100;2023-02-18T10:03:15;19.52;;;3.67;;
52268;SDS011;38224;50.950;4.100;2023-02-18T10:08:33;12.18;;;3.30;;
52268;SDS011;38224;50.950;4.100;2023-02-18T10:10:59;13.55;;;3.03;;
52268;SDS011;38224;50.950;4.100;2023-02-18T10:13:26;16.98;;;4.18;;
52268;SDS011;38224;50.950;4.100;2023-02-18T10:15:52;17.70;;;3.15;;
52268;SDS011;38224;50.950;4.100;2023-02-18T10:18:25;16.27;;;3.05;;
52268;SDS011;38224;50.950;4.100;2023-02-18T10:20:52;20.65;;;3.45;;
52268;SDS011;38224;50.950;4.100;2023-02-18T10:23:20;14.80;;;3.22;;
52268;SDS011;38224;50.950;4.100;2023-02-18T10:25:46;19.10;;;3.28;;
52268;SDS011;38224;50.950;4.100;2023-02-18T10:28:12;18.05;;;3.17;;
52268;SDS011;38224;50.950;4.100;2023-02-18T10:33:18;17.27;;;2.65;;
52268;SDS011;38224;50.950;4.100;2023-02-18T10:35:53;21.25;;;3.38;;
52268;SDS011;38224;50.950;4.100;2023-02-18T10:51:25;16.10;;;3.72;;
52268;SDS011;38224;50.950;4.100;2023-02-18T10:53:51;15.07;;;3.17;;
52268;SDS011;38224;50.950;4.100;2023-02-18T10:59:04;14.27;;;3.38;;
52268;SDS011;38224;50.950;4.100;2023-02-18T11:01:30;15.83;;;3.23;;
52268;SDS011;38224;50.950;4.100;2023-02-18T11:04:12;16.98;;;3.80;;
52268;SDS011;38224;50.950;4.100;2023-02-18T11:06:40;18.83;;;3.72;;
52268;SDS011;38224;50.950;4.100;2023-02-18T11:09:05;24.23;;;3.60;;
52268;SDS011;38224;50.950;4.100;2023-02-18T11:11:36;23.90;;;4.22;;
52268;SDS011;38224;50.950;4.100;2023-02-18T11:14:02;18.90;;;5.03;;
52268;SDS011;38224;50.950;4.100;2023-02-18T11:17:02;16.60;;;3.20;;
52268;SDS011;38224;50.950;4.100;2023-02-18T11:19:37;24.55;;;4.78;;
52268;SDS011;38224;50.950;4.100;2023-02-18T11:22:18;17.70;;;3.45;;
52268;SDS011;38224;50.950;4.100;2023-02-18T11:24:44;20.65;;;4.80;;
52268;SDS011;38224;50.950;4.100;2023-02-18T11:30:43;18.98;;;4.15;;
52268;SDS011;38224;50.950;4.100;2023-02-18T11:33:08;17.05;;;3.22;;
52268;SDS011;38224;50.950;4.100;2023-02-18T11:35:34;22.90;;;3.50;;
52268;SDS011;38224;50.950;4.100;2023-02-18T11:38:00;17.55;;;3.78;;
52268;SDS011;38224;50.950;4.100;2023-02-18T11:40:27;20.13;;;4.18;;
52268;SDS011;38224;50.950;4.100;2023-02-18T11:43:14;13.90;;;3.08;;
52268;SDS011;38224;50.950;4.100;2023-02-18T11:45:40;18.50;;;3.42;;
52268;SDS011;38224;50.950;4.100;2023-02-18T11:48:06;21.48;;;4.05;;
52268;SDS011;38224;50.950;4.100;2023-02-18T11:50:32;16.73;;;3.50;;
52268;SDS011;38224;50.950;4.100;2023-02-18T11:52:58;11.77;;;3.10;;
52268;SDS011;38224;50.950;4.100;2023-02-18T11:55:25;17.30;;;3.28;;
52268;SDS011;38224;50.950;4.100;2023-02-18T12:02:48;20.13;;;4.10;;
52268;SDS011;38224;50.950;4.100;2023-02-18T12:05:18;14.70;;;2.92;;
52268;SDS011;38224;50.950;4.100;2023-02-18T12:12:46;13.93;;;3.53;;
52268;SDS011;38224;50.950;4.100;2023-02-18T12:15:16;23.83;;;3.47;;
52268;SDS011;38224;50.950;4.100;2023-02-18T12:17:55;22.80;;;3.58;;
52268;SDS011;38224;50.950;4.100;2023-02-18T12:20:39;18.25;;;3.40;;
52268;SDS011;38224;50.950;4.100;2023-02-18T12:26:18;14.60;;;2.47;;
52268;SDS011;38224;50.950;4.100;2023-02-18T12:34:17;17.15;;;2.83;;
52268;SDS011;38224;50.950;4.100;2023-02-18T12:39:30;17.25;;;3.00;;
52268;SDS011;38224;50.950;4.100;2023-02-18T12:47:15;22.88;;;3.65;;
52268;SDS011;38224;50.950;4.100;2023-02-18T12:54:52;18.40;;;3.55;;
52268;SDS011;38224;50.950;4.100;2023-02-18T13:15:34;16.58;;;3.88;;
52268;SDS011;38224;50.950;4.100;2023-02-18T13:18:02;19.65;;;3.92;;
52268;SDS011;38224;50.950;4.100;2023-02-18T13:20:45;18.58;;;4.28;;
52268;SDS011;38224;50.950;4.100;2023-02-18T13:23:20;15.32;;;3.75;;
52268;SDS011;38224;50.950;4.100;2023-02-18T13:25:46;17.40;;;3.72;;
52268;SDS011;38224;50.950;4.100;2023-02-18T13:28:18;20.55;;;4.10;;
52268;SDS011;38224;50.950;4.100;2023-02-18T13:30:53;19.27;;;4.03;;
52268;SDS011;38224;50.950;4.100;2023-02-18T13:36:10;16.58;;;4.82;;
52268;SDS011;38224;50.950;4.100;2023-02-18T13:38:58;12.40;;;4.00;;
52268;SDS011;38224;50.950;4.100;2023-02-18T13:41:24;13.65;;;4.25;;
52268;SDS011;38224;50.950;4.100;2023-02-18T13:43:50;13.85;;;4.50;;
52268;SDS011;38224;50.950;4.100;2023-02-18T13:46:17;22.88;;;4.43;;
52268;SDS011;38224;50.950;4.100;2023-02-18T13:48:44;14.20;;;4.03;;
52268;SDS011;38224;50.950;4.100;2023-02-18T13:51:10;16.17;;;4.55;;
52268;SDS011;38224;50.950;4.100;2023-02-18T13:53:37;24.85;;;4.60;;
52268;SDS011;38224;50.950;4.100;2023-02-18T14:01:00;14.45;;;4.60;;
52268;SDS011;38224;50.950;4.100;2023-02-18T14:06:13;26.35;;;6.20;;
52268;SDS011;38224;50.950;4.100;2023-02-18T14:08:39;18.70;;;5.22;;
52268;SDS011;38224;50.950;4.100;2023-02-18T14:16:07;15.85;;;4.57;;
52268;SDS011;38224;50.950;4.100;2023-02-18T14:18:36;22.52;;;5.57;;
52268;SDS011;38224;50.950;4.100;2023-02-18T14:21:19;15.57;;;4.50;;
52268;SDS011;38224;50.950;4.100;2023-02-18T14:23:56;13.82;;;4.22;;
52268;SDS011;38224;50.950;4.100;2023-02-18T14:28:58;15.32;;;4.13;;
52268;SDS011;38224;50.950;4.100;2023-02-18T14:31:46;15.43;;;4.55;;
52268;SDS011;38224;50.950;4.100;2023-02-18T14:39:27;19.63;;;4.97;;
52268;SDS011;38224;50.950;4.100;2023-02-18T14:49:56;15.55;;;4.80;;
52268;SDS011;38224;50.950;4.100;2023-02-18T14:52:33;13.48;;;5.05;;
52268;SDS011;38224;50.950;4.100;2023-02-18T14:55:02;23.25;;;5.32;;
52268;SDS011;38224;50.950;4.100;2023-02-18T14:57:31;15.68;;;5.60;;
52268;SDS011;38224;50.950;4.100;2023-02-18T14:59:57;17.42;;;4.85;;
52268;SDS011;38224;50.950;4.100;2023-02-18T15:02:28;16.90;;;5.28;;
52268;SDS011;38224;50.950;4.100;2023-02-18T15:05:06;17.10;;;5.60;;
52268;SDS011;38224;50.950;4.100;2023-02-18T15:07:35;24.13;;;5.90;;
52268;SDS011;38224;50.950;4.100;2023-02-18T15:10:00;22.13;;;6.15;;
52268;SDS011;38224;50.950;4.100;2023-02-18T15:12:25;22.23;;;5.60;;
52268;SDS011;38224;50.950;4.100;2023-02-18T15:14:52;22.15;;;6.07;;
52268;SDS011;38224;50.950;4.100;2023-02-18T15:17:19;19.52;;;5.38;;
52268;SDS011;38224;50.950;4.100;2023-02-18T15:19:56;22.33;;;5.55;;
52268;SDS011;38224;50.950;4.100;2023-02-18T15:22:23;22.90;;;6.07;;
52268;SDS011;38224;50.950;4.100;2023-02-18T15:24:49;19.15;;;5.25;;
52268;SDS011;38224;50.950;4.100;2023-02-18T15:27:16;26.60;;;6.90;;
52268;SDS011;38224;50.950;4.100;2023-02-18T15:29:42;26.73;;;5.25;;
52268;SDS011;38224;50.950;4.100;2023-02-18T15:34:38;23.20;;;6.32;;
52268;SDS011;38224;50.950;4.100;2023-02-18T15:37:05;24.45;;;5.60;;
52268;SDS011;38224;50.950;4.100;2023-02-18T15:39:30;22.15;;;5.75;;
52268;SDS011;38224;50.950;4.100;2023-02-18T15:42:05;23.65;;;5.80;;
52268;SDS011;38224;50.950;4.100;2023-02-18T15:44:31;22.27;;;5.85;;
52268;SDS011;38224;50.950;4.100;2023-02-18T15:47:07;20.63;;;6.25;;
52268;SDS011;38224;50.950;4.100;2023-02-18T15:49:34;17.13;;;6.22;;
52268;SDS011;38224;50.950;4.100;2023-02-18T15:52:02;23.98;;;6.70;;
52268;SDS011;38224;50.950;4.100;2023-02-18T15:54:28;16.83;;;5.63;;
52268;SDS011;38224;50.950;4.100;2023-02-18T15:56:54;13.80;;;5.50;;
52268;SDS011;38224;50.950;4.100;2023-02-18T15:59:24;17.95;;;4.68;;
52268;SDS011;38224;50.950;4.100;2023-02-18T16:01:50;11.82;;;4.63;;
52268;SDS011;38224;50.950;4.100;2023-02-18T16:04:16;13.07;;;4.70;;
52268;SDS011;38224;50.950;4.100;2023-02-18T16:06:45;16.90;;;5.05;;
52268;SDS011;38224;50.950;4.100;2023-02-18T16:09:12;13.82;;;4.57;;
52268;SDS011;38224;50.950;4.100;2023-02-18T16:11:45;13.35;;;4.60;;
52268;SDS011;38224;50.950;4.100;2023-02-18T16:14:22;14.20;;;4.80;;
52268;SDS011;38224;50.950;4.100;2023-02-18T16:16:56;11.45;;;4.10;;
52268;SDS011;38224;50.950;4.100;2023-02-18T16:19:23;13.55;;;4.40;;
52268;SDS011;38224;50.950;4.100;2023-02-18T16:21:49;17.95;;;4.80;;
52268;SDS011;38224;50.950;4.100;2023-02-18T16:24:21;12.23;;;4.53;;
52268;SDS011;38224;50.950;4.100;2023-02-18T16:26:49;10.57;;;4.03;;
52268;SDS011;38224;50.950;4.100;2023-02-18T16:29:19;15.02;;;4.15;;
52268;SDS011;38224;50.950;4.100;2023-02-18T16:31:45;11.02;;;4.25;;
52268;SDS011;38224;50.950;4.100;2023-02-18T16:34:10;12.47;;;4.30;;
52268;SDS011;38224;50.950;4.100;2023-02-18T16:36:35;12.23;;;4.80;;
52268;SDS011;38224;50.950;4.100;2023-02-18T16:39:01;14.02;;;4.55;;
52268;SDS011;38224;50.950;4.100;2023-02-18T16:41:26;13.63;;;4.78;;
52268;SDS011;38224;50.950;4.100;2023-02-18T16:43:52;14.13;;;5.43;;
52268;SDS011;38224;50.950;4.100;2023-02-18T16:46:18;15.38;;;5.43;;
52268;SDS011;38224;50.950;4.100;2023-02-18T16:48:45;14.45;;;5.20;;
52268;SDS011;38224;50.950;4.100;2023-02-18T16:51:31;13.77;;;6.15;;
52268;SDS011;38224;50.950;4.100;2023-02-18T16:53:58;10.63;;;5.10;;
52268;SDS011;38224;50.950;4.100;2023-02-18T16:56:25;15.65;;;6.70;;
52268;SDS011;38224;50.950;4.100;2023-02-18T16:58:50;16.00;;;6.30;;
52268;SDS011;38224;50.950;4.100;2023-02-18T17:01:29;14.00;;;5.60;;
52268;SDS011;38224;50.950;4.100;2023-02-18T17:03:55;16.10;;;7.95;;